Time;durP1;ratioP1;P1;durP2;ratioP2;P2;SDS_P1;SDS_P2;PMS_P1;PMS_P2;Temp;Humidity;BMP_temperature;BMP_pressure;BME280_temperature;BME280_humidity;BME280_pressure;Samples;Min_cycle;Max_cycle;Signal;HPM_P1;HPM_P2
2023/01/22 00:02:19;;;;;;;29.85;19.38;;;;;;;5.36;54.98;100901.00;4841082;29;20060;-82
2023/01/22 00:05:31;;;;;;;29.73;19.27;;;;;;;4.38;54.60;100736.91;4820927;29;20059;-84
2023/01/22 00:08:07;;;;;;;29.48;19.17;;;;;;;5.72;54.97;100947.06;4771853;29;20666;-82
2023/01/22 00:10:59;;;;;;;35.80;21.02;;;;;;;5.01;54.38;100850.56;4775476;29;20812;-81
2023/01/22 00:13:42;;;;;;;30.48;20.30;;;;;;;4.46;55.08;100750.41;4836085;29;20056;-82
2023/01/22 00:16:13;;;;;;;34.17;20.95;;;;;;;5.61;54.84;100945.09;4836630;29;20493;-81
2023/01/22 00:18:46;;;;;;;31.45;20.15;;;;;;;5.78;54.93;100963.31;4832091;29;20408;-82
2023/01/22 00:21:17;;;;;;;35.17;20.67;;;;;;;5.75;54.86;100976.69;4841121;29;20139;-83
2023/01/22 00:23:44;;;;;;;30.77;21.55;;;;;;;5.10;55.16;100865.78;4852018;29;20134;-83
2023/01/22 00:26:23;;;;;;;29.02;20.17;;;;;;;5.87;54.55;100984.75;4837709;29;20580;-83
2023/01/22 00:29:30;;;;;;;33.15;19.58;;;;;;;5.67;54.87;100960.50;4828079;29;20463;-83
2023/01/22 00:32:14;;;;;;;28.60;17.52;;;;;;;5.11;55.30;100863.03;4842247;29;20388;-84
2023/01/22 00:34:43;;;;;;;26.42;17.02;;;;;;;5.58;55.74;100958.44;4856306;29;20506;-84
2023/01/22 00:40:17;;;;;;;30.65;15.95;;;;;;;5.67;55.70;100991.28;4862565;29;20111;-84
2023/01/22 00:43:00;;;;;;;27.90;16.25;;;;;;;5.59;56.14;100978.59;4853092;29;20052;-82
2023/01/22 00:45:33;;;;;;;29.77;17.55;;;;;;;4.84;56.55;100860.31;4834646;29;20567;-83
2023/01/22 00:48:20;;;;;;;27.90;17.30;;;;;;;5.61;56.62;100981.09;4821631;29;20060;-82
2023/01/22 00:51:07;;;;;;;31.42;18.77;;;;;;;5.42;57.13;100970.88;4826819;29;20374;-83
2023/01/22 00:53:43;;;;;;;30.48;17.48;;;;;;;5.35;57.72;100944.91;4859007;29;20055;-82
2023/01/22 00:56:38;;;;;;;23.40;13.40;;;;;;;5.72;59.42;100995.31;4856855;29;20181;-84
2023/01/22 00:59:14;;;;;;;21.27;12.52;;;;;;;5.83;59.95;101012.25;4841600;29;20347;-83
2023/01/22 01:01:40;;;;;;;24.38;13.10;;;;;;;5.96;60.11;101023.75;4864002;29;20056;-81
2023/01/22 01:04:07;;;;;;;22.75;12.00;;;;;;;5.73;62.62;101012.81;4884362;29;20135;-83
2023/01/22 01:06:40;;;;;;;18.48;11.77;;;;;;;5.75;62.43;101023.25;4878228;29;20051;-83
2023/01/22 01:09:10;;;;;;;14.05;9.68;;;;;;;5.26;63.55;100929.69;4892046;29;20142;-84
2023/01/22 01:11:50;;;;;;;16.52;10.18;;;;;;;5.83;64.02;101028.06;4881149;29;20075;-82
2023/01/22 01:14:17;;;;;;;15.27;10.38;;;;;;;5.67;64.39;101023.72;4879497;29;20052;-81
2023/01/22 01:16:50;;;;;;;20.13;11.38;;;;;;;5.22;64.44;100957.16;4873727;29;20079;-83
2023/01/22 01:19:31;;;;;;;21.83;11.32;;;;;;;5.53;67.47;101035.13;4872114;29;20406;-83
2023/01/22 01:22:05;;;;;;;17.77;10.50;;;;;;;5.23;67.76;100985.16;4875163;29;20472;-81
2023/01/22 01:24:35;;;;;;;19.53;10.80;;;;;;;5.43;68.50;101026.06;4871040;29;20047;-83
2023/01/22 01:27:10;;;;;;;15.90;9.50;;;;;;;5.60;68.13;101038.22;4862887;29;20243;-84
2023/01/22 01:29:36;;;;;;;20.50;11.15;;;;;;;5.27;67.79;100978.78;4840051;29;20060;-85
2023/01/22 01:32:03;;;;;;;14.35;7.65;;;;;;;5.74;67.44;101038.22;4891500;29;20051;-83
2023/01/22 01:34:30;;;;;;;13.00;7.05;;;;;;;5.78;67.50;101013.38;4873228;29;20459;-83
2023/01/22 01:37:04;;;;;;;14.70;7.20;;;;;;;5.34;68.34;100980.09;4861420;29;20295;-83
2023/01/22 01:39:37;;;;;;;12.57;4.93;;;;;;;4.96;68.90;100940.31;4893148;29;20051;-83
2023/01/22 01:42:17;;;;;;;11.88;4.65;;;;;;;5.41;70.06;101040.28;4879385;29;20079;-80
2023/01/22 01:45:27;;;;;;;16.27;4.80;;;;;;;5.43;70.70;101043.66;4871907;29;20094;-83
2023/01/22 01:48:03;;;;;;;13.63;5.15;;;;;;;5.40;70.87;101036.78;4851968;29;20538;-82
2023/01/22 01:50:46;;;;;;;7.05;4.63;;;;;;;5.27;71.11;101014.78;4853903;29;20151;-83
2023/01/22 01:53:22;;;;;;;12.93;5.47;;;;;;;5.29;71.76;101045.34;4871637;29;20486;-81
2023/01/22 01:56:18;;;;;;;11.43;4.60;;;;;;;5.41;71.09;101037.63;4840734;29;20077;-81
2023/01/22 01:58:53;;;;;;;8.50;4.68;;;;;;;5.35;72.20;101059.94;4870355;29;20851;-83
2023/01/22 02:01:28;;;;;;;5.80;3.65;;;;;;;5.36;72.35;101053.72;4871421;29;20446;-84
2023/01/22 02:04:22;;;;;;;9.52;4.05;;;;;;;5.40;71.08;101035.97;4885691;29;20059;-82
2023/01/22 02:06:49;;;;;;;13.13;5.50;;;;;;;5.52;71.60;101051.00;4895129;29;20526;-85
2023/01/22 02:09:19;;;;;;;8.98;4.32;;;;;;;5.34;72.10;101053.81;4871813;29;20111;-82
2023/01/22 02:11:52;;;;;;;10.60;4.00;;;;;;;4.93;72.86;100993.13;4886996;29;20331;-82
2023/01/22 02:14:57;;;;;;;9.25;4.40;;;;;;;5.08;72.79;101025.56;4863898;29;20411;-82
2023/01/22 02:17:28;;;;;;;10.10;4.55;;;;;;;5.24;73.43;101057.94;4876458;29;20072;-84
2023/01/22 02:19:55;;;;;;;13.15;4.38;;;;;;;5.04;73.68;101024.03;4862414;29;20052;-83
2023/01/22 02:22:36;;;;;;;10.27;3.63;;;;;;;5.17;73.66;101051.34;4871145;29;20154;-82
2023/01/22 02:25:07;;;;;;;5.60;4.13;;;;;;;5.29;72.57;101049.75;4872112;29;20339;-82
2023/01/22 02:27:42;;;;;;;8.85;3.80;;;;;;;5.19;73.66;101045.97;4869286;29;20299;-83
2023/01/22 02:30:10;;;;;;;7.25;3.42;;;;;;;5.17;73.55;101042.56;4867737;29;20056;-82
2023/01/22 02:32:39;;;;;;;6.75;3.70;;;;;;;5.24;72.76;101047.41;4871920;29;20044;-84
2023/01/22 02:35:07;;;;;;;13.77;4.05;;;;;;;5.31;71.87;101061.88;4911262;29;20422;-82
2023/01/22 02:37:37;;;;;;;7.28;3.53;;;;;;;5.41;71.84;101042.91;4892776;29;20138;-84
2023/01/22 02:40:08;;;;;;;15.57;4.03;;;;;;;4.49;72.48;100909.75;4875997;29;20051;-83
2023/01/22 02:42:44;;;;;;;9.75;4.15;;;;;;;4.99;72.30;100999.78;4910019;29;20304;-83
2023/01/22 02:45:11;;;;;;;5.63;3.40;;;;;;;4.68;73.06;100975.28;4896781;29;20494;-83
2023/01/22 02:47:41;;;;;;;6.78;3.35;;;;;;;4.75;72.86;100976.59;4888760;29;20055;-84
2023/01/22 02:50:13;;;;;;;8.52;3.08;;;;;;;4.16;72.59;100888.94;4890277;29;20197;-83
2023/01/22 02:52:52;;;;;;;5.45;3.20;;;;;;;5.06;72.72;101056.38;4889029;29;20043;-82
2023/01/22 02:55:22;;;;;;;7.20;3.33;;;;;;;3.97;72.72;100874.19;4892809;29;20048;-81
2023/01/22 02:58:16;;;;;;;8.07;2.83;;;;;;;4.97;72.48;101033.22;4893201;29;20430;-83
2023/01/22 03:00:47;;;;;;;5.35;2.60;;;;;;;4.96;71.70;101002.59;4878453;29;20170;-81
2023/01/22 03:03:17;;;;;;;6.03;3.78;;;;;;;5.11;71.38;101035.91;4899358;29;20064;-82
2023/01/22 03:05:49;;;;;;;8.95;3.08;;;;;;;4.90;72.35;101007.31;4902372;29;20063;-82
2023/01/22 03:08:18;;;;;;;9.18;3.00;;;;;;;5.14;71.35;101033.91;4883165;29;20048;-81
2023/01/22 03:10:45;;;;;;;7.78;2.88;;;;;;;5.12;71.42;101016.53;4861532;29;20347;-80
2023/01/22 03:21:54;;;;;;;6.68;2.97;;;;;;;5.09;69.83;101001.78;4877201;29;20363;-80
2023/01/22 03:25:00;;;;;;;4.97;2.88;;;;;;;5.24;68.95;101026.34;4850500;29;20442;-79
2023/01/22 03:27:31;;;;;;;5.57;2.88;;;;;;;5.22;68.13;101022.97;4876030;29;20423;-81
2023/01/22 03:30:06;;;;;;;5.80;2.95;;;;;;;5.19;68.90;101015.22;4870011;29;20471;-80
2023/01/22 03:32:37;;;;;;;7.22;3.00;;;;;;;5.43;67.43;101033.13;4855943;29;20508;-78
2023/01/22 03:35:04;;;;;;;10.20;2.97;;;;;;;5.14;67.77;100988.34;4888850;29;20127;-79
2023/01/22 03:37:30;;;;;;;4.15;3.03;;;;;;;5.33;69.05;101024.94;4884707;29;20099;-78
2023/01/22 03:40:10;;;;;;;4.15;2.80;;;;;;;5.33;68.04;101009.97;4875963;29;20074;-80
2023/01/22 03:42:40;;;;;;;6.35;2.45;;;;;;;5.34;69.17;101030.13;4881774;29;20067;-79
2023/01/22 03:45:10;;;;;;;5.38;3.25;;;;;;;5.28;68.21;101008.56;4887209;29;20130;-82
2023/01/22 03:47:37;;;;;;;4.53;2.75;;;;;;;5.31;68.39;101022.38;4886306;29;20063;-81
2023/01/22 03:50:07;;;;;;;4.53;3.00;;;;;;;5.32;69.02;101034.63;4905921;29;20075;-83
2023/01/22 03:52:34;;;;;;;6.63;2.95;;;;;;;5.01;68.53;100975.06;4906495;29;20059;-83
2023/01/22 03:55:13;;;;;;;6.22;2.88;;;;;;;5.46;68.59;101040.84;4904795;29;20158;-76
2023/01/22 03:57:46;;;;;;;5.55;2.97;;;;;;;5.46;68.81;101046.09;4893734;29;20055;-82
2023/01/22 04:00:19;;;;;;;7.75;3.75;;;;;;;5.17;69.56;101011.00;4892843;29;20414;-83
2023/01/22 04:02:48;;;;;;;9.20;2.63;;;;;;;5.02;70.48;101010.13;4893850;29;20059;-77
2023/01/22 04:05:26;;;;;;;4.65;3.13;;;;;;;5.09;71.21;101027.25;4883549;29;20062;-80
2023/01/22 04:08:06;;;;;;;7.38;3.17;;;;;;;5.06;72.36;101022.19;4877050;29;20475;-79
2023/01/22 04:10:38;;;;;;;5.53;2.70;;;;;;;4.90;71.46;100983.63;4863014;29;20487;-80
2023/01/22 04:13:04;;;;;;;9.05;3.00;;;;;;;5.12;71.40;101017.41;4885453;29;20437;-79
2023/01/22 04:15:35;;;;;;;6.25;2.70;;;;;;;5.16;70.14;101007.53;4859847;29;20055;-82
2023/01/22 04:18:03;;;;;;;9.40;2.75;;;;;;;5.25;71.15;101012.25;4861164;29;20131;-80
2023/01/22 04:20:36;;;;;;;7.20;2.42;;;;;;;5.15;69.64;100995.31;4863434;29;20048;-78
2023/01/22 04:23:12;;;;;;;8.15;2.72;;;;;;;5.31;69.27;101017.13;4860763;29;20056;-80
2023/01/22 04:25:38;;;;;;;5.05;2.88;;;;;;;5.06;69.23;100990.59;4864498;29;20842;-79
2023/01/22 04:28:09;;;;;;;12.63;2.42;;;;;;;4.77;69.36;100944.97;4857160;29;20414;-80
2023/01/22 04:30:37;;;;;;;5.95;2.88;;;;;;;4.82;68.76;100930.59;4866659;29;20592;-73
2023/01/22 04:33:19;;;;;;;7.72;2.40;;;;;;;5.23;70.24;101014.13;4864695;29;20458;-84
2023/01/22 04:35:57;;;;;;;10.70;2.97;;;;;;;5.23;69.88;101024.66;4887162;29;20052;-81
2023/01/22 04:38:26;;;;;;;10.35;2.60;;;;;;;5.20;69.91;101013.47;4867524;29;20056;-80
2023/01/22 04:41:07;;;;;;;10.35;3.45;;;;;;;5.29;69.74;101026.94;4869827;29;20051;-80
2023/01/22 04:43:36;;;;;;;7.70;2.80;;;;;;;5.34;69.99;101032.75;4865542;29;20059;-80
2023/01/22 04:46:13;;;;;;;4.85;3.15;;;;;;;5.02;69.06;100978.53;4868660;29;20048;-79
2023/01/22 04:49:03;;;;;;;7.00;2.85;;;;;;;5.19;70.30;101019.66;4878770;29;20418;-78
2023/01/22 04:51:36;;;;;;;11.52;3.55;;;;;;;5.30;70.29;101036.50;4889265;29;20086;-79
2023/01/22 04:54:30;;;;;;;7.90;3.28;;;;;;;5.18;71.00;101010.06;4884890;29;20039;-79
2023/01/22 04:57:12;;;;;;;7.82;2.97;;;;;;;4.96;71.12;100973.66;4868101;29;20373;-79
2023/01/22 04:59:39;;;;;;;8.52;2.97;;;;;;;5.39;70.22;101039.50;4876207;29;20424;-79
2023/01/22 05:02:06;;;;;;;9.40;3.00;;;;;;;5.28;69.79;101005.94;4887002;29;20063;-80
2023/01/22 05:04:42;;;;;;;7.25;2.72;;;;;;;5.39;70.39;101034.25;4889389;29;20060;-80
2023/01/22 05:07:12;;;;;;;3.75;2.65;;;;;;;4.92;70.97;100960.66;4884915;29;20063;-81
2023/01/22 05:09:38;;;;;;;5.43;2.80;;;;;;;5.31;70.93;101027.66;4870274;29;20052;-80
2023/01/22 05:12:08;;;;;;;9.95;2.78;;;;;;;5.19;70.11;101004.69;4863187;29;20307;-80
2023/01/22 05:14:38;;;;;;;11.57;2.70;;;;;;;5.37;70.32;101026.47;4858083;29;20100;-75
2023/01/22 05:17:05;;;;;;;4.15;2.47;;;;;;;5.19;70.70;101002.06;4858737;29;20056;-80
2023/01/22 05:19:48;;;;;;;5.53;2.67;;;;;;;5.26;70.73;101008.66;4837450;29;20398;-80
2023/01/22 05:22:24;;;;;;;2.80;2.15;;;;;;;5.29;71.38;101029.56;4867236;29;20521;-80
2023/01/22 05:24:59;;;;;;;3.90;2.47;;;;;;;5.03;71.00;100980.25;4894042;28;20142;-81
2023/01/22 05:27:26;;;;;;;6.18;2.67;;;;;;;5.13;71.15;101003.28;4840246;29;20059;-80
2023/01/22 05:30:09;;;;;;;9.55;2.40;;;;;;;4.53;70.71;100897.28;4846745;28;20338;-82
2023/01/22 05:32:37;;;;;;;10.40;2.63;;;;;;;5.24;70.66;101010.56;4892110;29;20052;-80
2023/01/22 05:35:04;;;;;;;7.22;2.88;;;;;;;4.96;71.64;100957.88;4901247;29;20051;-80
2023/01/22 05:37:32;;;;;;;7.10;2.33;;;;;;;4.98;71.26;100966.53;4885343;29;20090;-81
2023/01/22 05:39:58;;;;;;;7.68;2.30;;;;;;;5.14;71.25;100988.34;4884439;29;20458;-79
2023/01/22 05:42:25;;;;;;;7.43;2.42;;;;;;;5.09;71.51;100995.66;4885555;29;20052;-81
2023/01/22 05:44:52;;;;;;;9.07;2.90;;;;;;;5.03;71.54;100975.00;4894838;29;20056;-79
2023/01/22 05:47:25;;;;;;;6.90;3.00;;;;;;;5.21;71.15;101009.88;4896630;29;20410;-79
2023/01/22 05:49:57;;;;;;;5.32;2.28;;;;;;;5.22;71.41;101012.44;4904784;29;20306;-79
2023/01/22 05:52:24;;;;;;;14.80;2.88;;;;;;;5.24;71.34;101023.72;4908057;29;20154;-80
2023/01/22 05:54:50;;;;;;;10.02;2.40;;;;;;;4.86;71.37;100974.22;4896295;29;20067;-80
2023/01/22 05:57:17;;;;;;;4.90;2.20;;;;;;;5.18;71.66;101010.91;4924365;29;20055;-78
2023/01/22 05:59:48;;;;;;;8.52;2.85;;;;;;;5.12;71.61;100982.31;4916233;29;20075;-80
2023/01/22 06:02:19;;;;;;;8.32;2.80;;;;;;;4.99;70.68;100973.47;4873771;29;20526;-81
2023/01/22 06:04:46;;;;;;;6.55;2.47;;;;;;;5.09;71.43;100983.34;4903637;29;20347;-80
2023/01/22 06:07:37;;;;;;;7.28;2.60;;;;;;;5.24;70.74;101000.03;4917151;29;20098;-79
2023/01/22 06:10:11;;;;;;;8.68;2.75;;;;;;;5.32;70.97;101024.09;4882785;29;20062;-80
2023/01/22 06:12:45;;;;;;;4.53;2.22;;;;;;;4.92;70.51;100957.19;4867136;29;20163;-79
2023/01/22 06:15:15;;;;;;;3.67;2.30;;;;;;;5.14;70.53;100978.66;4907668;29;20264;-81
2023/01/22 06:17:44;;;;;;;5.57;2.20;;;;;;;5.15;70.87;100990.06;4906242;29;20059;-80
2023/01/22 06:20:11;;;;;;;5.97;2.42;;;;;;;5.47;70.58;101026.75;4898950;29;20348;-80
2023/01/22 06:22:40;;;;;;;7.80;3.25;;;;;;;5.23;70.44;100995.69;4904421;29;20074;-77
2023/01/22 06:25:09;;;;;;;8.05;3.00;;;;;;;5.10;70.63;100986.84;4893461;29;20066;-82
2023/01/22 06:27:41;;;;;;;11.13;3.53;;;;;;;5.39;70.46;101031.59;4885742;29;20439;-78
2023/01/22 06:30:17;;;;;;;6.95;2.50;;;;;;;5.26;70.72;101011.28;4910112;29;20054;-80
2023/01/22 06:32:52;;;;;;;9.00;2.63;;;;;;;5.56;71.06;101053.38;4905350;29;20185;-81
2023/01/22 06:35:25;;;;;;;5.70;2.75;;;;;;;5.49;71.34;101057.31;4906706;29;20348;-82
2023/01/22 06:37:52;;;;;;;5.75;2.45;;;;;;;5.49;70.62;101051.22;4913517;28;20136;-81
2023/01/22 06:40:19;;;;;;;11.60;2.80;;;;;;;5.40;71.66;101046.50;4929445;28;20446;-80
2023/01/22 06:42:48;;;;;;;5.47;2.80;;;;;;;5.29;71.83;101023.41;4917287;28;20082;-82
2023/01/22 06:45:15;;;;;;;5.97;2.83;;;;;;;5.60;71.70;101064.56;4931761;28;20050;-79
2023/01/22 06:47:44;;;;;;;5.80;3.10;;;;;;;5.53;71.89;101052.69;4914739;29;20043;-81
2023/01/22 06:50:12;;;;;;;8.40;3.22;;;;;;;5.86;71.85;101080.56;4909050;29;20059;-75
2023/01/22 06:52:39;;;;;;;9.30;2.83;;;;;;;5.77;72.54;101076.69;4924403;28;20437;-81
2023/01/22 06:55:06;;;;;;;7.35;3.05;;;;;;;5.39;73.31;101044.78;4909149;29;20792;-83
2023/01/22 06:57:44;;;;;;;7.85;2.78;;;;;;;5.68;73.58;101082.53;4914363;29;20086;-86
2023/01/22 07:00:25;;;;;;;;;;;;;;;;;;;;;
2023/01/22 07:03:13;;;;;;;5.00;2.08;;;;;;;5.70;73.34;101085.91;4926724;28;20226;-83
2023/01/22 07:05:40;;;;;;;8.45;3.15;;;;;;;5.65;74.08;101074.81;4907168;29;20135;-81
2023/01/22 07:08:10;;;;;;;6.95;3.08;;;;;;;5.34;74.12;101043.28;4904587;29;20509;-83
2023/01/22 07:10:40;;;;;;;10.43;2.65;;;;;;;5.14;74.85;101009.41;4922771;29;20055;-82
2023/01/22 07:13:10;;;;;;;10.65;2.40;;;;;;;5.46;74.82;101070.69;4901249;29;20118;-81
2023/01/22 07:15:39;;;;;;;6.82;2.55;;;;;;;5.48;75.21;101079.31;4900525;29;20051;-83
2023/01/22 07:18:06;;;;;;;3.70;2.05;;;;;;;5.13;75.69;101026.13;4906269;29;20377;-82
2023/01/22 07:20:42;;;;;;;7.70;2.70;;;;;;;5.55;75.69;101092.97;4922750;29;20047;-84
2023/01/22 07:23:22;;;;;;;5.22;2.13;;;;;;;4.86;76.49;101010.19;4904536;29;20503;-85
2023/01/22 07:25:49;;;;;;;4.80;2.63;;;;;;;5.23;76.74;101074.66;4901652;29;20558;-83
2023/01/22 07:28:16;;;;;;;8.27;2.15;;;;;;;5.28;76.38;101069.97;4902677;29;20110;-83
2023/01/22 07:30:48;;;;;;;7.50;2.50;;;;;;;5.53;75.96;101100.09;4914279;29;20115;-87
2023/01/22 07:33:19;;;;;;;6.68;1.98;;;;;;;5.32;76.34;101068.84;4909316;29;20040;-85
2023/01/22 07:35:58;;;;;;;4.38;2.05;;;;;;;4.84;75.89;101007.66;4917618;29;20055;-88
2023/01/22 07:38:28;;;;;;;3.80;1.88;;;;;;;5.55;75.28;101079.78;4924220;29;20852;-81
2023/01/22 07:41:07;;;;;;;7.03;1.90;;;;;;;5.47;75.68;101103.13;4909712;29;20047;-84
2023/01/22 07:43:52;;;;;;;3.58;2.00;;;;;;;5.72;75.73;101132.28;4905295;29;20130;-87
2023/01/22 07:46:19;;;;;;;6.20;2.58;;;;;;;5.16;76.15;101065.44;4894380;29;20054;-84
2023/01/22 07:48:51;;;;;;;6.07;2.40;;;;;;;5.61;76.03;101137.38;4894810;29;20059;-81
2023/01/22 07:51:18;;;;;;;9.60;3.15;;;;;;;5.66;76.25;101127.41;4900137;29;20641;-77
2023/01/22 07:53:48;;;;;;;7.15;2.45;;;;;;;5.67;76.66;101139.63;4880563;29;20131;-78
2023/01/22 07:56:23;;;;;;;8.25;2.55;;;;;;;5.62;76.78;101144.34;4882625;29;20098;-89
2023/01/22 07:58:54;;;;;;;6.57;2.78;;;;;;;5.59;77.66;101168.22;4890290;29;20637;-83
2023/01/22 08:01:26;;;;;;;6.35;2.28;;;;;;;5.55;78.38;101156.16;4889229;29;20119;-81
2023/01/22 08:04:03;;;;;;;10.15;2.90;;;;;;;5.57;77.35;101149.03;4920053;29;20405;-78
2023/01/22 08:06:29;;;;;;;3.72;1.92;;;;;;;5.51;78.00;101149.38;4890122;29;20048;-79
2023/01/22 08:09:01;;;;;;;4.28;2.03;;;;;;;5.63;78.20;101184.69;4885306;29;20434;-82
2023/01/22 08:11:53;;;;;;;5.18;2.47;;;;;;;5.37;78.99;101162.53;4902927;29;20055;-89
2023/01/22 08:14:23;;;;;;;3.85;1.83;;;;;;;5.66;78.67;101197.69;4874927;29;20054;-89
2023/01/22 08:16:50;;;;;;;15.63;2.47;;;;;;;5.34;77.79;101138.06;4891824;29;20437;-82
2023/01/22 08:19:19;;;;;;;5.75;2.42;;;;;;;5.23;78.07;101126.47;4881883;29;20326;-84
2023/01/22 08:21:52;;;;;;;7.60;3.20;;;;;;;5.68;79.52;101225.66;4883010;29;20052;-86
2023/01/22 08:24:25;;;;;;;8.00;2.85;;;;;;;5.46;80.08;101199.72;4866427;29;20073;-83
2023/01/22 08:26:55;;;;;;;5.55;2.75;;;;;;;5.71;80.35;101235.16;4868295;29;20584;-83
2023/01/22 08:29:22;;;;;;;7.38;3.33;;;;;;;5.74;80.92;101235.81;4848930;29;20261;-82
2023/01/22 08:31:49;;;;;;;6.50;2.90;;;;;;;5.75;81.51;101247.19;4881835;29;20051;-81
2023/01/22 08:34:16;;;;;;;8.52;2.67;;;;;;;5.91;81.08;101247.16;4883050;29;20069;-84
2023/01/22 08:36:43;;;;;;;2.42;2.13;;;;;;;5.67;81.25;101225.72;4858079;29;20148;-87
2023/01/22 08:39:18;;;;;;;5.95;2.70;;;;;;;5.63;81.22;101216.28;4889014;29;20047;-89
2023/01/22 08:41:56;;;;;;;5.78;2.70;;;;;;;5.83;81.91;101252.88;4891352;29;20054;-82
2023/01/22 08:44:31;;;;;;;5.78;2.72;;;;;;;5.77;81.56;101234.78;4892918;29;20645;-90
2023/01/22 08:47:02;;;;;;;5.50;3.10;;;;;;;5.77;81.69;101243.53;4907906;29;20058;-87
2023/01/22 08:49:32;;;;;;;12.48;2.97;;;;;;;5.62;82.02;101231.25;4892426;29;20126;-81
2023/01/22 08:51:59;;;;;;;3.55;2.72;;;;;;;5.72;82.76;101248.22;4879280;29;20051;-83
2023/01/22 08:54:36;;;;;;;5.55;2.58;;;;;;;5.85;82.02;101255.41;4886078;29;20481;-86
2023/01/22 08:57:08;;;;;;;6.78;2.72;;;;;;;5.84;81.52;101251.09;4903724;29;20233;-88
2023/01/22 08:59:40;;;;;;;4.35;2.20;;;;;;;5.93;81.41;101255.81;4866171;29;20322;-82
2023/01/22 09:02:12;;;;;;;8.85;3.10;;;;;;;5.85;82.33;101268.56;4890763;29;20056;-82
2023/01/22 09:04:48;;;;;;;13.88;3.40;;;;;;;5.87;81.26;101264.06;4903190;28;20151;-84
2023/01/22 09:07:30;;;;;;;8.85;3.08;;;;;;;5.95;81.36;101264.53;4882984;29;20130;-84
2023/01/22 09:09:57;;;;;;;5.78;2.55;;;;;;;5.86;80.80;101252.69;4878893;29;20059;-85
2023/01/22 09:12:24;;;;;;;6.45;2.25;;;;;;;6.10;79.91;101274.16;4867837;29;20335;-82
2023/01/22 09:14:53;;;;;;;5.43;2.78;;;;;;;5.92;80.58;101256.75;4842486;29;20293;-85
2023/01/22 09:17:28;;;;;;;4.88;2.47;;;;;;;6.13;80.52;101278.38;4866378;29;20046;-85
2023/01/22 09:20:05;;;;;;;5.95;2.30;;;;;;;4.74;80.16;101068.78;4859465;29;20106;-82
2023/01/22 09:22:32;;;;;;;7.18;2.67;;;;;;;4.68;80.24;101069.94;4857235;29;20052;-83
2023/01/22 09:25:03;;;;;;;6.07;2.60;;;;;;;6.12;80.23;101298.63;4859330;29;20439;-82
2023/01/22 09:27:37;;;;;;;5.75;2.30;;;;;;;5.58;79.86;101213.91;4879689;29;20620;-82
2023/01/22 09:30:16;;;;;;;8.00;2.75;;;;;;;6.10;80.03;101303.16;4871301;29;20135;-81
2023/01/22 09:32:53;;;;;;;4.20;2.63;;;;;;;6.07;81.05;101310.38;4875356;29;20056;-82
2023/01/22 09:35:40;;;;;;;8.23;3.05;;;;;;;6.13;81.03;101316.13;4861604;29;20193;-82
2023/01/22 09:38:13;;;;;;;;;;;;;;;6.06;81.82;101313.97;4876674;29;20058;-83
2023/01/22 09:41:03;;;;;;;4.30;2.50;;;;;;;6.01;81.16;101303.69;4869828;29;20093;-81
2023/01/22 09:43:33;;;;;;;8.25;3.00;;;;;;;6.10;81.70;101316.31;4900636;29;20111;-79
2023/01/22 09:46:21;;;;;;;5.50;3.28;;;;;;;6.05;81.36;101297.28;4891122;29;20254;-82
2023/01/22 09:49:02;;;;;;;6.13;2.92;;;;;;;6.21;81.83;101313.03;4862934;29;20059;-82
2023/01/22 09:51:31;;;;;;;4.07;3.08;;;;;;;6.18;80.24;101292.97;4839582;29;20060;-82
2023/01/22 09:54:07;;;;;;;8.45;2.78;;;;;;;6.08;80.50;101291.84;4856055;29;20051;-84
2023/01/22 09:56:50;;;;;;;6.68;2.53;;;;;;;4.90;80.06;101095.88;4830404;29;20051;-83
2023/01/22 09:59:27;;;;;;;7.85;2.97;;;;;;;6.41;79.83;101327.69;4839099;29;20243;-82
2023/01/22 10:02:41;;;;;;;5.43;3.30;;;;;;;5.96;80.73;101255.66;4841371;29;20052;-83
2023/01/22 10:05:30;;;;;;;7.53;3.58;;;;;;;5.69;80.69;101203.63;4895659;29;20295;-83
2023/01/22 10:08:28;;;;;;;3.80;3.22;;;;;;;6.13;80.86;101284.50;4878073;29;20062;-84
2023/01/22 10:11:11;;;;;;;4.30;2.30;;;;;;;6.39;81.46;101332.22;4893525;29;20615;-83
2023/01/22 10:13:48;;;;;;;5.10;2.78;;;;;;;6.39;81.55;101337.50;4888840;29;20225;-84
2023/01/22 10:16:25;;;;;;;4.50;3.28;;;;;;;6.23;81.56;101299.78;4875591;29;20636;-84
2023/01/22 10:19:04;;;;;;;4.28;2.65;;;;;;;5.21;80.66;101121.28;4893139;29;20138;-83
2023/01/22 10:21:48;;;;;;;13.80;2.92;;;;;;;6.16;80.46;101279.03;4875024;29;20043;-82
2023/01/22 10:24:17;;;;;;;8.02;2.65;;;;;;;6.43;80.85;101333.72;4880892;29;20057;-83
2023/01/22 10:26:57;;;;;;;3.47;2.47;;;;;;;5.96;80.62;101234.56;4882139;29;20479;-84
2023/01/22 10:29:32;;;;;;;5.03;3.00;;;;;;;6.56;80.46;101329.41;4875577;29;20065;-84
2023/01/22 10:32:23;;;;;;;5.97;2.60;;;;;;;6.57;81.12;101328.44;4850223;29;20263;-82
2023/01/22 10:35:24;;;;;;;8.27;4.20;;;;;;;6.18;80.83;101266.63;4883784;29;20300;-83
2023/01/22 10:38:24;;;;;;;7.45;3.28;;;;;;;6.64;80.04;101342.97;4872047;29;20373;-82
2023/01/22 10:41:16;;;;;;;7.45;3.83;;;;;;;6.67;80.80;101328.75;4880045;29;20060;-83
2023/01/22 10:43:47;;;;;;;4.13;3.10;;;;;;;6.26;80.83;101270.59;4885227;29;20078;-81
2023/01/22 10:46:29;;;;;;;6.40;2.88;;;;;;;6.13;80.71;101258.13;4898634;29;20047;-83
2023/01/22 10:49:30;;;;;;;7.38;3.25;;;;;;;6.55;80.27;101332.13;4891241;29;20039;-81
2023/01/22 10:52:04;;;;;;;5.88;3.30;;;;;;;6.45;80.53;101317.81;4860256;29;20355;-83
2023/01/22 10:54:35;;;;;;;5.35;3.08;;;;;;;6.68;80.54;101348.94;4853465;29;20393;-81
2023/01/22 10:57:26;;;;;;;7.57;3.95;;;;;;;6.66;79.65;101328.84;4861573;29;20098;-79
2023/01/22 11:00:15;;;;;;;5.40;3.30;;;;;;;6.83;78.47;101355.06;4875429;29;20048;-84
2023/01/22 11:02:53;;;;;;;6.13;3.05;;;;;;;6.52;77.54;101292.75;4864852;29;20111;-83
2023/01/22 11:05:35;;;;;;;9.40;3.75;;;;;;;6.70;78.31;101356.72;4891453;28;20059;-85
2023/01/22 11:08:05;;;;;;;5.07;2.60;;;;;;;5.98;77.83;101222.16;4890192;29;20382;-83
2023/01/22 11:10:47;;;;;;;4.40;2.42;;;;;;;6.53;77.13;101324.31;4897576;29;20402;-82
2023/01/22 11:14:08;;;;;;;6.90;2.95;;;;;;;6.62;78.00;101339.56;4883946;29;20055;-81
2023/01/22 11:16:45;;;;;;;4.97;2.70;;;;;;;6.71;77.09;101338.19;4852994;29;20051;-83
2023/01/22 11:19:23;;;;;;;4.85;2.83;;;;;;;6.56;78.34;101344.41;4884398;29;20047;-84
2023/01/22 11:22:14;;;;;;;7.03;3.58;;;;;;;6.54;78.31;101347.13;4893550;29;20479;-85
2023/01/22 11:24:50;;;;;;;4.40;2.60;;;;;;;6.51;77.71;101328.00;4880392;29;20520;-83
2023/01/22 11:27:36;;;;;;;3.10;2.40;;;;;;;6.62;77.18;101344.84;4886012;29;20450;-85
2023/01/22 11:30:34;;;;;;;6.50;2.67;;;;;;;6.46;76.45;101322.13;4890329;29;20059;-83
2023/01/22 11:33:27;;;;;;;6.85;2.90;;;;;;;5.93;76.79;101225.03;4873033;29;20056;-83
2023/01/22 11:36:21;;;;;;;8.10;2.88;;;;;;;6.56;77.35;101339.97;4906482;29;20090;-81
2023/01/22 11:39:11;;;;;;;7.72;3.58;;;;;;;6.40;75.80;101291.69;4839577;29;20049;-83
2023/01/22 11:41:51;;;;;;;6.97;3.80;;;;;;;6.63;76.84;101337.81;4876492;29;20105;-79
2023/01/22 11:44:39;;;;;;;10.90;4.65;;;;;;;6.48;77.70;101315.84;4891681;29;20070;-84
2023/01/22 11:47:43;;;;;;;10.32;4.53;;;;;;;6.32;77.99;101299.25;4887289;29;20245;-83
2023/01/22 11:50:29;;;;;;;10.38;5.43;;;;;;;6.42;79.58;101310.94;4870497;29;20470;-79
2023/01/22 11:53:24;;;;;;;8.02;3.72;;;;;;;6.35;78.50;101296.41;4889395;29;20533;-80
2023/01/22 11:56:21;;;;;;;8.13;2.78;;;;;;;6.53;77.76;101329.59;4872835;29;20123;-84
2023/01/22 11:59:05;;;;;;;7.28;3.30;;;;;;;6.17;79.34;101270.22;4892031;29;20241;-82
2023/01/22 12:02:22;;;;;;;5.45;3.50;;;;;;;6.39;80.37;101303.19;4874680;29;20351;-83
2023/01/22 12:06:11;;;;;;;6.65;3.20;;;;;;;6.53;79.88;101324.31;4871803;29;20265;-83
2023/01/22 12:09:24;;;;;;;7.80;4.00;;;;;;;6.51;79.90;101328.84;4839501;29;20417;-82
2023/01/22 12:12:41;;;;;;;8.30;3.88;;;;;;;6.19;79.59;101257.78;4822070;29;20075;-82
2023/01/22 12:15:34;;;;;;;6.72;4.13;;;;;;;6.44;80.40;101311.69;4798676;29;20049;-84
2023/01/22 12:18:57;;;;;;;5.70;3.17;;;;;;;6.51;81.06;101323.56;4896991;29;20054;-84
2023/01/22 12:21:44;;;;;;;7.47;3.20;;;;;;;6.50;80.35;101324.50;4872100;29;20458;-83
2023/01/22 12:24:30;;;;;;;11.70;4.00;;;;;;;6.39;80.29;101316.38;4880298;29;20055;-83
2023/01/22 12:27:42;;;;;;;7.95;4.63;;;;;;;6.46;80.35;101325.63;4862904;29;20082;-84
2023/01/22 12:30:45;;;;;;;12.05;6.50;;;;;;;6.46;80.05;101328.28;4852077;29;20407;-83